Time;durP1;ratioP1;P1;durP2;ratioP2;P2;SDS_P1;SDS_P2;PMS_P1;PMS_P2;Temp;Humidity;BMP_temperature;BMP_pressure;BME280_temperature;BME280_humidity;BME280_pressure;Samples;Min_cycle;Max_cycle;Signal;HPM_P1;HPM_P2
2020/12/24 00:02:12;;;;;;;0.73;0.17;;;8.80;99.90;;;;;;5098334;28;20016;-78
2020/12/24 00:04:38;;;;;;;1.58;0.10;;;8.80;99.90;;;;;;5096191;28;20024;-77
2020/12/24 00:07:04;;;;;;;0.82;0.22;;;8.80;99.90;;;;;;5098313;28;20027;-78
2020/12/24 00:09:29;;;;;;;5.30;0.38;;;8.80;99.90;;;;;;5098093;28;20043;-74
2020/12/24 00:11:55;;;;;;;4.57;0.45;;;8.80;99.90;;;;;;5081596;28;20024;-74
2020/12/24 00:14:21;;;;;;;5.68;0.00;;;8.90;99.90;;;;;;5077882;28;20149;-74
2020/12/24 00:16:47;;;;;;;2.00;0.00;;;8.80;99.90;;;;;;5075975;28;20424;-74
2020/12/24 00:19:13;;;;;;;0.70;0.00;;;8.80;99.90;;;;;;5077982;28;20028;-77
2020/12/24 00:21:38;;;;;;;3.63;0.30;;;8.80;99.90;;;;;;5089330;28;20031;-74
2020/12/24 00:24:04;;;;;;;2.38;0.00;;;8.80;99.90;;;;;;5098057;28;20523;-74
2020/12/24 00:26:30;;;;;;;0.52;0.00;;;8.80;99.90;;;;;;5097332;28;20545;-75
2020/12/24 00:28:57;;;;;;;1.13;0.20;;;8.80;99.90;;;;;;5098772;28;20097;-74
2020/12/24 00:31:22;;;;;;;4.03;0.00;;;8.90;99.90;;;;;;5088286;28;20033;-77
2020/12/24 00:33:48;;;;;;;1.08;0.17;;;8.90;99.90;;;;;;5077970;28;20036;-77
2020/12/24 00:36:14;;;;;;;7.00;0.57;;;8.90;99.90;;;;;;5077975;28;20063;-77
2020/12/24 00:38:39;;;;;;;4.47;0.10;;;8.90;99.90;;;;;;5076356;28;20111;-75
2020/12/24 00:41:06;;;;;;;1.17;0.10;;;8.90;99.90;;;;;;5077711;28;20042;-75
2020/12/24 00:43:32;;;;;;;2.38;0.10;;;8.90;99.90;;;;;;5077229;28;20056;-75
2020/12/24 00:45:58;;;;;;;8.27;0.15;;;8.90;99.90;;;;;;5076740;28;20020;-78
2020/12/24 00:48:23;;;;;;;2.70;0.35;;;8.90;99.90;;;;;;5075875;28;20074;-74
2020/12/24 00:50:49;;;;;;;5.18;0.30;;;8.90;99.90;;;;;;5080163;28;20024;-75
2020/12/24 00:53:14;;;;;;;1.63;0.45;;;8.90;99.90;;;;;;5096090;28;20031;-74
2020/12/24 00:55:40;;;;;;;7.55;0.20;;;9.00;99.90;;;;;;5097088;28;20089;-75
2020/12/24 00:58:06;;;;;;;2.42;0.15;;;8.90;99.90;;;;;;5095944;28;20020;-75
2020/12/24 01:00:31;;;;;;;3.13;0.57;;;8.90;99.90;;;;;;5095517;28;20074;-75
2020/12/24 01:02:57;;;;;;;2.45;0.00;;;8.90;99.90;;;;;;5076428;28;20065;-77
2020/12/24 01:05:22;;;;;;;5.60;0.10;;;8.90;99.90;;;;;;5075377;28;20020;-76
2020/12/24 01:07:48;;;;;;;5.10;0.00;;;9.00;99.90;;;;;;5075903;28;20064;-74
2020/12/24 01:10:14;;;;;;;1.98;0.03;;;9.00;99.90;;;;;;5076762;28;20027;-74
2020/12/24 01:12:39;;;;;;;2.83;0.00;;;9.00;99.90;;;;;;5076471;28;20477;-74
2020/12/24 01:15:09;;;;;;;1.52;0.10;;;8.90;99.90;;;;;;5075853;28;20086;-74
2020/12/24 01:17:35;;;;;;;1.90;0.00;;;9.00;99.90;;;;;;5076130;28;20066;-74
2020/12/24 01:20:01;;;;;;;2.20;0.22;;;8.90;99.90;;;;;;5083672;28;20028;-74
2020/12/24 01:22:27;;;;;;;4.93;0.13;;;8.90;99.90;;;;;;5094456;28;20028;-74
2020/12/24 01:24:52;;;;;;;4.75;0.20;;;8.90;99.90;;;;;;5096166;28;20020;-77
2020/12/24 01:27:18;;;;;;;3.80;0.40;;;8.90;99.90;;;;;;5095629;28;20377;-77
2020/12/24 01:29:44;;;;;;;0.93;0.00;;;8.90;99.90;;;;;;5093959;28;20020;-77
2020/12/24 01:32:09;;;;;;;2.70;0.00;;;8.90;99.90;;;;;;5095839;28;20028;-77
2020/12/24 01:34:35;;;;;;;3.83;0.30;;;8.90;99.90;;;;;;5096499;28;20028;-74
2020/12/24 01:37:01;;;;;;;7.78;0.65;;;8.80;99.90;;;;;;5096259;28;20020;-74
2020/12/24 01:39:28;;;;;;;2.80;0.00;;;8.80;99.90;;;;;;5090242;28;20078;-73
2020/12/24 01:41:54;;;;;;;3.05;0.20;;;8.80;99.90;;;;;;5073589;28;20027;-74
2020/12/24 01:44:19;;;;;;;2.20;0.20;;;8.80;99.90;;;;;;5073851;28;20481;-74
2020/12/24 01:46:46;;;;;;;0.55;0.20;;;8.80;99.90;;;;;;5075134;28;20381;-74
2020/12/24 01:49:11;;;;;;;2.88;0.30;;;8.70;99.90;;;;;;5074494;28;20478;-74
2020/12/24 01:51:39;;;;;;;1.25;0.25;;;8.70;99.90;;;;;;5075279;28;20078;-74
2020/12/24 01:54:04;;;;;;;1.60;0.35;;;8.70;99.90;;;;;;5075619;28;20024;-75
2020/12/24 01:56:30;;;;;;;4.88;0.10;;;8.70;99.90;;;;;;5074927;28;20023;-75
2020/12/24 01:58:56;;;;;;;2.65;0.22;;;8.70;99.90;;;;;;5093077;28;20105;-76
2020/12/24 02:01:21;;;;;;;3.10;0.55;;;8.60;99.90;;;;;;5094009;28;20392;-76
2020/12/24 02:03:48;;;;;;;1.38;0.00;;;8.60;99.90;;;;;;5095002;28;20024;-77
2020/12/24 02:06:14;;;;;;;2.85;0.00;;;8.60;99.90;;;;;;5095875;28;20028;-74
2020/12/24 02:08:39;;;;;;;2.05;0.00;;;8.60;99.90;;;;;;5078722;28;20031;-74
2020/12/24 02:11:07;;;;;;;2.30;0.10;;;8.60;99.90;;;;;;5073525;28;20024;-75
2020/12/24 02:13:33;;;;;;;1.23;0.03;;;8.60;99.90;;;;;;5074739;28;20024;-75
2020/12/24 02:15:59;;;;;;;4.03;0.17;;;8.60;99.90;;;;;;5082608;28;20024;-74
2020/12/24 02:18:25;;;;;;;1.23;0.00;;;8.60;99.90;;;;;;5093883;28;20032;-74
2020/12/24 02:20:53;;;;;;;1.42;0.00;;;8.60;99.90;;;;;;5095673;28;20476;-74
2020/12/24 02:23:18;;;;;;;1.15;0.00;;;8.60;99.90;;;;;;5095422;28;20028;-74
2020/12/24 02:25:44;;;;;;;2.95;0.00;;;8.60;99.90;;;;;;5087909;28;20024;-74
2020/12/24 02:28:10;;;;;;;5.93;0.22;;;8.60;99.90;;;;;;5074414;28;20032;-74
2020/12/24 02:30:37;;;;;;;0.90;0.00;;;8.60;99.90;;;;;;5074288;28;20028;-73
2020/12/24 02:33:03;;;;;;;1.75;0.00;;;8.50;99.90;;;;;;5074129;28;20443;-74
2020/12/24 02:35:28;;;;;;;2.35;0.00;;;8.60;99.90;;;;;;5078845;28;20023;-74
2020/12/24 02:37:54;;;;;;;3.17;0.05;;;8.60;99.90;;;;;;5095725;28;20027;-74
2020/12/24 02:40:20;;;;;;;1.48;0.00;;;8.50;99.90;;;;;;5095353;28;20468;-74
2020/12/24 02:42:45;;;;;;;2.78;0.00;;;8.60;99.90;;;;;;5099588;28;20012;-76
2020/12/24 02:45:11;;;;;;;1.08;0.00;;;8.60;99.90;;;;;;5096792;28;20385;-76
2020/12/24 02:47:39;;;;;;;2.25;0.60;;;8.60;99.90;;;;;;5097788;28;20024;-77
2020/12/24 02:50:07;;;;;;;5.18;0.38;;;8.60;99.90;;;;;;5098908;28;20441;-74
2020/12/24 02:52:33;;;;;;;4.03;0.35;;;8.50;99.90;;;;;;5098818;28;20024;-75
2020/12/24 02:54:59;;;;;;;3.58;0.25;;;8.50;99.90;;;;;;5084743;28;20078;-75
2020/12/24 02:57:25;;;;;;;1.73;0.00;;;8.50;99.90;;;;;;5078566;28;20055;-74
2020/12/24 02:59:50;;;;;;;4.63;0.38;;;8.40;99.90;;;;;;5078577;28;20024;-74
2020/12/24 03:02:16;;;;;;;3.22;0.65;;;8.40;99.90;;;;;;5078342;28;20066;-74
2020/12/24 03:04:41;;;;;;;2.00;0.03;;;8.50;99.90;;;;;;5087265;28;20384;-77
2020/12/24 03:07:07;;;;;;;6.22;0.00;;;8.40;99.90;;;;;;5098894;28;20030;-73
2020/12/24 03:09:33;;;;;;;1.77;0.57;;;8.40;99.90;;;;;;5098716;28;20381;-74
2020/12/24 03:11:58;;;;;;;3.10;0.00;;;8.40;99.90;;;;;;5098327;28;20076;-74
2020/12/24 03:14:24;;;;;;;4.30;0.00;;;8.40;99.90;;;;;;5092445;28;20056;-74
2020/12/24 03:16:49;;;;;;;4.97;0.25;;;8.30;99.90;;;;;;5078179;28;20385;-73
2020/12/24 03:19:15;;;;;;;2.13;0.10;;;8.30;99.90;;;;;;5078450;28;20374;-73
2020/12/24 03:21:40;;;;;;;1.58;0.00;;;8.40;99.90;;;;;;5078259;28;20103;-74
2020/12/24 03:24:06;;;;;;;4.68;0.20;;;8.40;99.90;;;;;;5077030;28;20028;-74
2020/12/24 03:26:32;;;;;;;4.15;0.20;;;8.30;99.90;;;;;;5079184;28;20106;-74
2020/12/24 03:28:58;;;;;;;3.38;0.40;;;8.40;99.90;;;;;;5078233;28;20104;-76
2020/12/24 03:31:26;;;;;;;4.68;1.40;;;8.50;99.90;;;;;;5077771;28;20035;-76
2020/12/24 03:33:53;;;;;;;3.50;1.30;;;8.40;99.90;;;;;;5093688;28;20024;-74
2020/12/24 03:36:19;;;;;;;3.33;1.40;;;8.30;99.90;;;;;;5079123;28;20028;-74
2020/12/24 03:38:45;;;;;;;1.02;0.85;;;8.20;99.90;;;;;;5078832;28;20072;-73
2020/12/24 03:41:11;;;;;;;1.55;1.00;;;8.20;99.90;;;;;;5076276;28;20505;-74
2020/12/24 03:43:37;;;;;;;2.17;1.10;;;8.10;99.90;;;;;;5076497;28;20477;-74
2020/12/24 03:46:02;;;;;;;1.80;0.63;;;8.00;99.90;;;;;;5077358;28;20031;-74
2020/12/24 03:48:28;;;;;;;3.97;1.58;;;7.90;99.90;;;;;;5077560;28;20028;-74
2020/12/24 03:50:54;;;;;;;3.00;0.50;;;7.80;99.90;;;;;;5076836;28;20031;-76
2020/12/24 03:53:20;;;;;;;1.10;0.30;;;7.70;99.90;;;;;;5085277;28;20036;-76
2020/12/24 03:55:45;;;;;;;0.30;0.10;;;7.60;99.90;;;;;;5096655;28;20020;-74
2020/12/24 03:58:11;;;;;;;0.65;0.03;;;7.50;99.90;;;;;;5096610;28;20047;-74
2020/12/24 04:00:37;;;;;;;0.10;0.00;;;7.40;99.90;;;;;;5096563;28;20020;-73
2020/12/24 04:03:03;;;;;;;0.30;0.00;;;7.30;99.90;;;;;;5096931;28;20117;-76
2020/12/24 04:05:29;;;;;;;1.13;0.00;;;7.20;99.90;;;;;;5096849;28;20020;-74
2020/12/24 04:07:54;;;;;;;0.00;0.00;;;7.00;99.90;;;;;;5095898;28;20032;-74
2020/12/24 04:10:20;;;;;;;0.00;0.00;;;6.90;99.90;;;;;;5094415;28;20073;-74
2020/12/24 04:12:45;;;;;;;0.00;0.00;;;6.90;99.90;;;;;;5075125;28;20024;-74
2020/12/24 04:15:11;;;;;;;1.48;0.00;;;6.80;99.90;;;;;;5075134;28;20040;-74
2020/12/24 04:17:37;;;;;;;0.00;0.00;;;6.70;99.90;;;;;;5076815;28;20516;-74
2020/12/24 04:20:03;;;;;;;1.60;0.00;;;6.60;99.90;;;;;;5088107;28;20032;-74
2020/12/24 04:22:29;;;;;;;0.80;0.00;;;6.50;99.90;;;;;;5096967;28;20124;-77
2020/12/24 04:24:55;;;;;;;0.00;0.00;;;6.40;99.90;;;;;;5096263;28;20108;-74
2020/12/24 04:27:21;;;;;;;0.88;0.00;;;6.20;99.90;;;;;;5096203;28;20112;-74
2020/12/24 04:29:46;;;;;;;0.38;0.00;;;6.10;99.90;;;;;;5091884;28;20027;-74
2020/12/24 04:32:12;;;;;;;0.00;0.00;;;6.00;99.90;;;;;;5096321;28;20051;-74
2020/12/24 04:34:37;;;;;;;0.10;0.00;;;5.90;99.90;;;;;;5080810;28;20032;-74
2020/12/24 04:37:03;;;;;;;0.63;0.00;;;5.80;99.90;;;;;;5093881;28;20077;-74
2020/12/24 04:39:28;;;;;;;0.00;0.00;;;5.70;99.90;;;;;;5096582;28;20396;-74
2020/12/24 04:41:58;;;;;;;0.00;0.00;;;5.60;99.90;;;;;;5097445;28;20028;-75
2020/12/24 04:44:25;;;;;;;0.00;0.00;;;5.50;99.90;;;;;;5094338;28;20032;-75
2020/12/24 04:46:51;;;;;;;0.98;0.00;;;5.40;99.90;;;;;;5096866;28;20020;-75
2020/12/24 04:49:17;;;;;;;1.75;0.00;;;5.30;99.90;;;;;;5096179;28;20153;-75
2020/12/24 04:51:44;;;;;;;0.20;0.00;;;5.20;99.90;;;;;;5094589;28;20023;-76
2020/12/24 04:54:12;;;;;;;0.00;0.00;;;5.20;99.90;;;;;;5093828;28;20023;-77
2020/12/24 04:56:38;;;;;;;0.10;0.00;;;5.10;99.90;;;;;;5095587;28;20020;-76
2020/12/24 04:59:06;;;;;;;0.22;0.00;;;5.00;99.90;;;;;;5095901;28;20032;-74
2020/12/24 05:01:31;;;;;;;1.02;0.00;;;5.00;99.90;;;;;;5095136;28;20445;-74
2020/12/24 05:03:57;;;;;;;0.00;0.00;;;5.00;99.90;;;;;;5095337;28;20035;-74
2020/12/24 05:06:22;;;;;;;0.73;0.00;;;4.90;99.90;;;;;;5095132;28;20016;-76
2020/12/24 05:08:53;;;;;;;0.00;0.00;;;4.90;99.90;;;;;;5096335;28;20024;-73
2020/12/24 05:11:30;;;;;;;0.28;0.00;;;4.80;99.90;;;;;;5095402;28;20078;-77
2020/12/24 05:13:57;;;;;;;0.25;0.08;;;4.70;99.90;;;;;;5077123;28;20032;-76
2020/12/24 05:16:22;;;;;;;0.45;0.00;;;4.70;99.90;;;;;;5075586;28;20024;-74
2020/12/24 05:18:48;;;;;;;0.22;0.00;;;4.70;99.90;;;;;;5075521;28;20031;-76
2020/12/24 05:21:31;;;;;;;0.22;0.00;;;4.60;99.90;;;;;;5073971;28;20043;-74
2020/12/24 05:23:57;;;;;;;0.13;0.05;;;4.60;99.90;;;;;;5073736;28;20031;-75
2020/12/24 05:26:22;;;;;;;0.00;0.00;;;4.60;99.90;;;;;;5075348;28;20354;-74
2020/12/24 05:28:48;;;;;;;0.50;0.00;;;4.50;99.90;;;;;;5074067;28;20116;-76
2020/12/24 05:31:34;;;;;;;0.00;0.00;;;4.50;99.90;;;;;;5073957;28;20031;-73
2020/12/24 05:33:59;;;;;;;0.43;0.00;;;4.50;99.90;;;;;;5091331;28;20046;-74
2020/12/24 05:36:25;;;;;;;0.10;0.00;;;4.50;99.90;;;;;;5075160;28;20064;-74
2020/12/24 05:38:52;;;;;;;0.00;0.00;;;4.50;99.90;;;;;;5075336;28;20036;-74
2020/12/24 05:41:35;;;;;;;0.20;0.00;;;4.50;99.90;;;;;;5075353;28;20028;-75
2020/12/24 05:44:06;;;;;;;0.20;0.00;;;4.50;99.90;;;;;;5075183;28;20020;-77
2020/12/24 05:46:43;;;;;;;1.85;0.00;;;4.50;99.90;;;;;;5074234;28;20036;-76
2020/12/24 05:49:10;;;;;;;0.00;0.00;;;4.50;99.90;;;;;;5075039;28;20103;-74
2020/12/24 05:51:36;;;;;;;0.00;0.00;;;4.50;99.90;;;;;;5090473;28;20031;-75
2020/12/24 05:54:02;;;;;;;0.00;0.00;;;4.50;99.90;;;;;;5091123;28;20063;-76
2020/12/24 05:56:28;;;;;;;2.80;0.00;;;4.50;99.90;;;;;;5074923;28;20021;-74
2020/12/24 05:58:54;;;;;;;0.13;0.00;;;4.50;99.90;;;;;;5075702;28;20024;-74
2020/12/24 06:01:27;;;;;;;3.63;0.00;;;4.50;99.90;;;;;;5073233;28;20013;-74
2020/12/24 06:04:05;;;;;;;0.00;0.00;;;4.50;99.90;;;;;;5074291;28;20359;-76
2020/12/24 06:06:47;;;;;;;0.63;0.00;;;4.50;99.90;;;;;;5074419;28;20067;-74
2020/12/24 06:09:14;;;;;;;0.00;0.00;;;4.50;99.90;;;;;;5089791;28;20025;-74
2020/12/24 06:11:51;;;;;;;0.00;0.00;;;4.50;99.90;;;;;;5090216;28;20031;-74
2020/12/24 06:14:31;;;;;;;0.00;0.00;;;4.60;99.90;;;;;;5090413;28;20032;-74
2020/12/24 06:17:07;;;;;;;0.00;0.00;;;4.60;99.90;;;;;;5077772;28;20020;-74
2020/12/24 06:19:38;;;;;;;0.10;0.00;;;4.50;99.90;;;;;;5094427;28;20044;-74
2020/12/24 06:22:04;;;;;;;0.00;0.00;;;4.60;99.90;;;;;;5078595;28;20024;-74
2020/12/24 06:24:37;;;;;;;0.00;0.00;;;4.50;99.90;;;;;;5094077;28;20023;-74
2020/12/24 06:27:07;;;;;;;0.28;0.22;;;4.60;99.90;;;;;;5077449;28;20016;-74
2020/12/24 06:29:37;;;;;;;2.63;0.20;;;4.60;99.90;;;;;;5078584;28;20021;-74
2020/12/24 06:32:06;;;;;;;0.55;0.20;;;4.60;99.90;;;;;;5078458;28;20028;-74
2020/12/24 06:34:31;;;;;;;;;;;4.60;99.90;;;;;;5079028;28;20458;-75
2020/12/24 06:37:20;;;;;;;0.73;0.00;;;4.60;99.90;;;;;;5082966;28;19915;-75
2020/12/24 06:39:53;;;;;;;0.00;0.00;;;4.60;99.90;;;;;;5097965;28;20059;-74
2020/12/24 06:42:38;;;;;;;0.10;0.00;;;4.60;99.90;;;;;;5098208;28;20021;-74
2020/12/24 06:45:08;;;;;;;0.00;0.00;;;4.60;99.90;;;;;;5097958;28;20482;-75
2020/12/24 06:47:34;;;;;;;0.00;0.00;;;4.60;99.90;;;;;;5087942;28;20048;-74
2020/12/24 06:50:00;;;;;;;0.43;0.00;;;4.60;99.90;;;;;;5076465;28;20039;-74
2020/12/24 06:52:30;;;;;;;0.00;0.00;;;4.60;99.90;;;;;;5078320;28;20025;-74
2020/12/24 06:55:15;;;;;;;0.10;0.00;;;4.60;99.90;;;;;;5077740;28;20021;-75
2020/12/24 06:57:42;;;;;;;0.00;0.00;;;4.60;99.90;;;;;;5088735;28;20119;-75
2020/12/24 07:00:25;;;;;;;0.00;0.00;;;4.60;99.90;;;;;;5096929;28;20020;-75
2020/12/24 07:02:51;;;;;;;0.25;0.00;;;4.60;99.90;;;;;;5098153;28;20392;-75
2020/12/24 07:05:46;;;;;;;0.55;0.00;;;4.60;99.90;;;;;;5096989;28;20024;-74
2020/12/24 07:08:33;;;;;;;0.47;0.00;;;4.60;99.90;;;;;;5082405;28;20028;-75
2020/12/24 07:11:00;;;;;;;0.28;0.00;;;4.60;99.90;;;;;;5077916;28;20103;-77
2020/12/24 07:13:40;;;;;;;1.98;0.00;;;4.70;99.90;;;;;;5078254;28;20078;-75
2020/12/24 07:16:07;;;;;;;0.05;0.00;;;4.70;99.90;;;;;;5078353;28;20032;-74
2020/12/24 07:18:36;;;;;;;0.00;0.00;;;4.70;99.90;;;;;;5077984;28;20111;-74
2020/12/24 07:21:04;;;;;;;0.03;0.00;;;4.70;99.90;;;;;;5077689;28;20025;-74
2020/12/24 07:23:31;;;;;;;0.15;0.10;;;4.70;99.90;;;;;;5076639;28;20032;-77
2020/12/24 07:26:00;;;;;;;0.65;0.00;;;4.70;99.90;;;;;;5079047;28;20085;-75
2020/12/24 07:28:31;;;;;;;0.00;0.00;;;4.70;99.90;;;;;;5076227;28;20461;-74
2020/12/24 07:30:58;;;;;;;0.00;0.00;;;4.70;99.90;;;;;;5151945;22;20484;-75
2020/12/24 07:33:25;;;;;;;1.25;0.00;;;4.70;99.90;;;;;;5097745;28;20051;-74
2020/12/24 07:35:50;;;;;;;0.20;0.00;;;4.70;99.90;;;;;;5098078;28;20028;-75
2020/12/24 07:38:34;;;;;;;0.00;0.00;;;4.70;99.90;;;;;;5096536;28;20032;-74
2020/12/24 07:41:00;;;;;;;0.10;0.00;;;4.70;99.90;;;;;;5096356;28;20024;-75
2020/12/24 07:43:26;;;;;;;0.00;0.00;;;4.70;99.90;;;;;;5096728;28;20450;-75
2020/12/24 07:45:52;;;;;;;0.10;0.10;;;4.70;99.90;;;;;;5096103;28;20398;-75
2020/12/24 07:48:17;;;;;;;0.00;0.00;;;4.80;99.90;;;;;;5098696;28;20020;-75
2020/12/24 07:50:44;;;;;;;0.45;0.00;;;4.80;99.90;;;;;;5097771;28;20052;-75
2020/12/24 07:53:26;;;;;;;2.40;0.00;;;4.80;99.90;;;;;;5097922;28;20112;-75
2020/12/24 07:55:52;;;;;;;0.25;0.00;;;4.90;99.90;;;;;;5097278;28;20099;-75
2020/12/24 07:58:18;;;;;;;0.63;0.00;;;4.90;99.90;;;;;;5096464;28;20090;-75
2020/12/24 08:00:52;;;;;;;2.95;0.00;;;4.90;99.90;;;;;;5096545;28;20060;-75
2020/12/24 08:03:18;;;;;;;0.30;0.20;;;5.00;99.90;;;;;;5098322;28;20087;-75
2020/12/24 08:05:45;;;;;;;0.00;0.00;;;5.00;99.90;;;;;;5097864;28;20020;-74
2020/12/24 08:08:20;;;;;;;5.55;0.10;;;5.00;99.90;;;;;;5096697;28;20020;-75
2020/12/24 08:10:46;;;;;;;0.75;0.00;;;5.00;99.90;;;;;;5098243;28;20024;-74
2020/12/24 08:13:12;;;;;;;0.65;0.10;;;5.00;99.90;;;;;;5097088;28;20556;-75
2020/12/24 08:15:45;;;;;;;0.55;0.00;;;5.00;99.90;;;;;;5096383;28;20020;-75
2020/12/24 08:18:14;;;;;;;1.35;0.00;;;5.00;99.90;;;;;;5096067;28;20028;-74
2020/12/24 08:21:08;;;;;;;0.08;0.00;;;5.00;99.90;;;;;;5097317;28;20020;-74
2020/12/24 08:23:52;;;;;;;0.77;0.00;;;5.00;99.90;;;;;;5096749;28;20012;-74
2020/12/24 08:26:19;;;;;;;0.25;0.00;;;5.00;99.90;;;;;;5097375;28;20368;-74
2020/12/24 08:28:56;;;;;;;2.65;0.00;;;5.10;99.90;;;;;;5096970;28;20024;-74
2020/12/24 08:31:28;;;;;;;1.83;0.00;;;5.10;99.90;;;;;;5095724;28;20480;-74
2020/12/24 08:33:54;;;;;;;0.22;0.00;;;5.10;99.90;;;;;;5095822;28;20016;-74
2020/12/24 08:36:27;;;;;;;0.73;0.00;;;5.10;99.90;;;;;;5096165;28;20024;-74
2020/12/24 08:39:09;;;;;;;1.45;0.47;;;5.10;99.90;;;;;;5094528;28;20369;-74
2020/12/24 08:41:41;;;;;;;1.60;0.00;;;5.10;99.90;;;;;;5095245;28;20016;-74
2020/12/24 08:44:08;;;;;;;1.65;0.20;;;5.20;99.90;;;;;;5080366;28;20028;-74
2020/12/24 08:46:34;;;;;;;1.40;0.00;;;5.20;99.90;;;;;;5077010;28;20162;-74
2020/12/24 08:49:20;;;;;;;1.85;0.05;;;5.20;99.90;;;;;;5075631;28;20028;-74
2020/12/24 08:51:45;;;;;;;0.93;0.00;;;5.20;99.90;;;;;;5076245;28;20025;-74
2020/12/24 08:54:11;;;;;;;4.28;0.57;;;5.20;99.90;;;;;;5075147;28;20032;-74
2020/12/24 08:56:38;;;;;;;0.95;0.08;;;5.30;99.90;;;;;;5074891;28;20042;-74
2020/12/24 08:59:13;;;;;;;1.55;0.00;;;5.30;99.90;;;;;;5075247;28;20033;-74
2020/12/24 09:01:43;;;;;;;1.73;0.00;;;5.30;99.90;;;;;;5074134;28;20020;-74
2020/12/24 09:04:14;;;;;;;0.63;0.03;;;5.30;99.90;;;;;;5075396;28;20028;-74
2020/12/24 09:06:46;;;;;;;1.15;0.05;;;5.40;99.90;;;;;;5075789;28;20016;-74
2020/12/24 09:09:25;;;;;;;0.77;0.10;;;5.40;99.90;;;;;;5074299;28;20020;-75
2020/12/24 09:11:53;;;;;;;2.13;0.00;;;5.40;99.90;;;;;;5075462;28;20393;-75
2020/12/24 09:14:23;;;;;;;0.98;0.10;;;5.40;99.90;;;;;;5074567;28;20051;-75
2020/12/24 09:16:54;;;;;;;1.73;0.00;;;5.40;99.90;;;;;;5074227;28;20473;-75
2020/12/24 09:19:19;;;;;;;0.20;0.00;;;5.40;99.90;;;;;;5075549;28;20028;-74
2020/12/24 09:21:57;;;;;;;3.35;0.00;;;5.50;99.90;;;;;;5075758;28;20024;-74
2020/12/24 09:24:24;;;;;;;1.95;0.05;;;5.50;99.90;;;;;;5092186;28;20031;-74
2020/12/24 09:26:55;;;;;;;0.10;0.00;;;5.50;99.90;;;;;;5094733;28;20016;-73
2020/12/24 09:29:23;;;;;;;1.48;0.00;;;6.90;99.90;;;;;;5095351;28;20049;-73
2020/12/24 09:32:01;;;;;;;1.88;0.00;;;5.40;99.90;;;;;;5095011;28;20396;-73
2020/12/24 09:34:28;;;;;;;1.05;0.15;;;5.40;99.90;;;;;;5087622;28;20439;-73
2020/12/24 09:36:57;;;;;;;0.40;0.03;;;5.40;99.90;;;;;;5073130;28;20060;-74
2020/12/24 09:39:23;;;;;;;0.47;0.00;;;5.50;99.90;;;;;;5074324;28;20025;-74
2020/12/24 09:41:49;;;;;;;0.50;0.00;;;5.50;99.90;;;;;;5074902;28;20074;-74
2020/12/24 09:44:15;;;;;;;1.08;0.45;;;5.60;99.90;;;;;;5072983;28;20475;-73
2020/12/24 09:46:41;;;;;;;3.45;0.00;;;5.60;99.90;;;;;;5072976;28;20496;-73
2020/12/24 09:49:07;;;;;;;2.83;0.00;;;5.70;99.90;;;;;;5074061;28;20032;-73
2020/12/24 09:51:35;;;;;;;1.55;0.13;;;5.60;99.90;;;;;;5073152;28;20036;-73
2020/12/24 09:54:01;;;;;;;2.90;0.40;;;5.70;99.90;;;;;;5075134;28;20393;-73
2020/12/24 09:56:27;;;;;;;1.48;0.00;;;5.70;99.90;;;;;;5075118;28;20274;-73
2020/12/24 09:58:53;;;;;;;4.30;0.10;;;5.70;99.90;;;;;;5075263;28;20461;-74
2020/12/24 10:01:18;;;;;;;1.85;0.65;;;5.70;99.90;;;;;;5075946;28;20021;-74
2020/12/24 10:03:44;;;;;;;1.60;0.20;;;5.80;99.90;;;;;;5089449;28;20035;-74
2020/12/24 10:06:09;;;;;;;5.55;0.40;;;5.80;99.90;;;;;;5095621;28;20485;-74
2020/12/24 10:08:35;;;;;;;2.60;0.03;;;5.80;99.90;;;;;;5093681;28;20020;-75
2020/12/24 10:11:01;;;;;;;0.65;0.17;;;5.80;99.90;;;;;;5095689;28;20020;-73
2020/12/24 10:13:26;;;;;;;4.10;0.22;;;5.80;99.90;;;;;;5096008;28;20020;-74
2020/12/24 10:15:52;;;;;;;6.20;0.65;;;5.90;99.90;;;;;;5095758;28;20035;-77
2020/12/24 10:18:17;;;;;;;4.68;0.80;;;5.90;99.90;;;;;;5094743;28;20035;-78
2020/12/24 10:20:43;;;;;;;7.55;0.30;;;5.90;99.90;;;;;;5077378;28;20025;-78
2020/12/24 10:23:11;;;;;;;2.10;0.30;;;6.00;99.90;;;;;;5074409;28;20381;-79
2020/12/24 10:25:37;;;;;;;8.43;0.60;;;6.00;99.90;;;;;;5073355;28;20439;-77
2020/12/24 10:28:03;;;;;;;8.63;0.28;;;6.10;99.90;;;;;;5075818;28;20021;-77
2020/12/24 10:30:29;;;;;;;5.10;0.43;;;6.20;99.90;;;;;;5088526;28;20039;-77
2020/12/24 10:32:54;;;;;;;2.40;0.00;;;6.20;99.90;;;;;;5093979;28;20028;-77
2020/12/24 10:35:20;;;;;;;6.63;0.20;;;6.30;99.90;;;;;;5096248;28;20028;-77
2020/12/24 10:37:49;;;;;;;2.03;0.10;;;6.30;99.90;;;;;;5096651;28;20032;-77
2020/12/24 10:40:18;;;;;;;5.72;0.00;;;6.40;99.90;;;;;;5083442;28;20495;-77
2020/12/24 10:42:46;;;;;;;4.95;0.00;;;6.40;99.90;;;;;;5073562;28;20029;-77
2020/12/24 10:45:15;;;;;;;5.05;0.00;;;7.10;99.90;;;;;;5074628;28;20017;-77
2020/12/24 10:47:40;;;;;;;7.93;0.22;;;6.40;99.90;;;;;;5075129;28;20021;-77
2020/12/24 10:50:06;;;;;;;8.45;0.98;;;6.50;99.90;;;;;;5085226;28;20036;-76
2020/12/24 10:52:32;;;;;;;3.80;0.30;;;6.50;99.90;;;;;;5092420;28;20057;-76
2020/12/24 10:54:58;;;;;;;8.27;0.10;;;6.60;99.90;;;;;;5094731;28;20028;-75
2020/12/24 10:57:23;;;;;;;3.97;0.10;;;6.60;99.90;;;;;;5093273;28;20115;-76
2020/12/24 10:59:49;;;;;;;4.75;0.30;;;6.60;99.90;;;;;;5094474;28;20095;-76
2020/12/24 11:02:15;;;;;;;8.45;1.17;;;6.60;99.90;;;;;;5083981;28;20103;-76
2020/12/24 11:04:40;;;;;;;2.92;0.20;;;6.70;99.90;;;;;;5092567;28;20024;-76
2020/12/24 11:07:06;;;;;;;3.90;0.20;;;6.70;99.90;;;;;;5096866;28;20062;-76
2020/12/24 11:09:31;;;;;;;4.35;0.45;;;6.70;99.90;;;;;;5096635;28;20111;-75
2020/12/24 11:11:58;;;;;;;4.20;0.10;;;6.70;99.90;;;;;;5091083;28;20413;-76
2020/12/24 11:14:24;;;;;;;4.30;0.20;;;6.80;99.90;;;;;;5096981;28;20072;-75
2020/12/24 11:16:49;;;;;;;6.30;0.00;;;6.80;99.90;;;;;;5098512;28;20024;-76
2020/12/24 11:19:18;;;;;;;4.47;0.73;;;6.90;99.90;;;;;;5096963;28;20023;-76
2020/12/24 11:21:44;;;;;;;8.25;0.22;;;6.90;99.90;;;;;;5097066;28;20473;-76
2020/12/24 11:24:10;;;;;;;3.08;0.20;;;7.00;99.90;;;;;;5098329;28;20032;-77
2020/12/24 11:26:37;;;;;;;7.97;0.20;;;7.00;99.90;;;;;;5098448;28;20044;-76
2020/12/24 11:29:08;;;;;;;3.55;0.45;;;7.00;99.90;;;;;;5098283;28;20556;-78
2020/12/24 11:31:38;;;;;;;12.13;0.45;;;7.10;99.90;;;;;;5098180;28;20089;-77
2020/12/24 11:34:05;;;;;;;6.50;0.10;;;7.10;99.90;;;;;;5096851;28;20024;-78
2020/12/24 11:36:31;;;;;;;4.05;0.43;;;7.20;99.90;;;;;;5096231;28;20031;-78
2020/12/24 11:38:59;;;;;;;3.72;0.10;;;7.20;99.90;;;;;;5096521;28;20484;-78
2020/12/24 11:41:26;;;;;;;4.90;0.00;;;7.10;99.90;;;;;;5097472;28;20023;-78
2020/12/24 11:43:53;;;;;;;7.05;0.00;;;7.10;99.90;;;;;;5097695;28;20016;-77
2020/12/24 11:46:20;;;;;;;6.30;0.00;;;7.20;99.90;;;;;;5097591;28;20012;-77
2020/12/24 11:48:48;;;;;;;4.13;0.00;;;7.10;99.90;;;;;;5097622;28;20020;-77
2020/12/24 11:51:14;;;;;;;2.10;0.05;;;7.10;99.90;;;;;;5096317;28;20034;-77
2020/12/24 11:53:41;;;;;;;3.92;0.43;;;7.10;99.90;;;;;;5081121;28;20020;-77
2020/12/24 11:56:17;;;;;;;4.75;0.30;;;7.10;99.90;;;;;;5097083;28;20050;-79
2020/12/24 11:58:44;;;;;;;2.58;0.00;;;7.20;99.90;;;;;;5095541;28;20496;-77
2020/12/24 12:01:14;;;;;;;5.32;0.00;;;7.20;99.90;;;;;;5096362;28;20481;-76
2020/12/24 12:03:39;;;;;;;7.90;0.68;;;7.20;99.90;;;;;;5077376;28;20112;-78
2020/12/24 12:06:09;;;;;;;3.30;0.38;;;7.20;99.90;;;;;;5075150;28;20070;-78
2020/12/24 12:08:35;;;;;;;6.60;0.00;;;7.20;99.90;;;;;;5075337;28;20024;-78
2020/12/24 12:11:05;;;;;;;1.73;0.25;;;7.30;99.90;;;;;;5077009;28;20046;-78
2020/12/24 12:13:31;;;;;;;5.43;0.00;;;7.30;99.90;;;;;;5075735;28;20032;-78
2020/12/24 12:15:57;;;;;;;4.95;0.30;;;7.40;99.90;;;;;;5076710;28;20031;-78
2020/12/24 12:18:23;;;;;;;2.95;0.47;;;7.40;99.90;;;;;;5074663;28;20481;-78
2020/12/24 12:20:49;;;;;;;3.25;0.10;;;7.40;99.90;;;;;;5074418;28;20016;-77
2020/12/24 12:23:15;;;;;;;4.30;0.20;;;7.40;99.90;;;;;;5076173;28;20017;-77
2020/12/24 12:25:41;;;;;;;4.45;0.00;;;7.40;99.90;;;;;;5076420;28;20150;-76
2020/12/24 12:28:06;;;;;;;3.30;0.20;;;7.40;99.90;;;;;;5076281;28;20090;-76
2020/12/24 12:30:32;;;;;;;3.50;0.05;;;7.40;99.90;;;;;;5076204;28;20033;-76
2020/12/24 12:32:58;;;;;;;5.38;0.00;;;7.40;99.90;;;;;;5075833;28;20031;-77
2020/12/24 12:35:23;;;;;;;5.82;0.03;;;7.40;99.90;;;;;;5074706;28;20123;-77
2020/12/24 12:37:49;;;;;;;2.92;0.00;;;7.30;99.90;;;;;;5075402;28;20440;-77
2020/12/24 12:40:16;;;;;;;8.43;0.60;;;7.30;99.90;;;;;;5074478;28;20020;-77
2020/12/24 12:42:42;;;;;;;8.60;0.55;;;7.20;99.90;;;;;;5076236;28;20108;-77
2020/12/24 12:45:07;;;;;;;3.17;0.30;;;7.20;99.90;;;;;;5076428;28;20445;-77
2020/12/24 12:47:37;;;;;;;2.90;0.00;;;7.10;99.90;;;;;;5076527;28;20028;-77
2020/12/24 12:50:05;;;;;;;1.70;0.03;;;7.10;99.90;;;;;;5076340;28;20031;-77
2020/12/24 12:52:31;;;;;;;1.20;0.35;;;7.00;99.90;;;;;;5075929;28;20027;-77
2020/12/24 12:54:56;;;;;;;3.28;0.00;;;7.00;99.90;;;;;;5076033;28;20048;-77
2020/12/24 12:57:22;;;;;;;2.78;0.10;;;6.90;99.90;;;;;;5073430;28;20046;-78
2020/12/24 12:59:47;;;;;;;4.28;0.25;;;6.90;99.90;;;;;;5074256;28;20035;-77
2020/12/24 13:02:13;;;;;;;4.68;0.00;;;6.90;99.90;;;;;;5073753;28;20474;-77